createdAt,value
2024-02-09T00:01:53.883Z,94971.38
2024-02-09T00:04:20.603Z,94968.69
2024-02-09T00:06:47.260Z,94961.03
2024-02-09T00:09:13.962Z,94951.13
2024-02-09T00:11:46.367Z,94956.66
2024-02-09T00:14:13.954Z,94959.66
2024-02-09T00:16:45.138Z,94953.50
2024-02-09T00:19:13.242Z,94948.13
2024-02-09T00:21:43.463Z,94944.34
2024-02-09T00:24:12.430Z,94946.31
2024-02-09T00:26:39.806Z,94940.59
2024-02-09T00:29:13.650Z,94944.81
2024-02-09T00:31:40.326Z,94937.91
2024-02-09T00:34:06.989Z,94944.06
2024-02-09T00:36:35.370Z,94951.25
2024-02-09T00:39:01.957Z,94937.91
2024-02-09T00:41:28.519Z,94947.81
2024-02-09T00:43:55.052Z,94959.50
2024-02-09T00:46:29.556Z,94945.25
2024-02-09T00:49:03.860Z,94940.91
2024-02-09T00:51:30.669Z,94944.66
2024-02-09T00:53:57.215Z,94935.03
2024-02-09T00:56:26.393Z,94944.22
2024-02-09T00:58:52.959Z,94946.47
2024-02-09T01:01:21.721Z,94952.63
2024-02-09T01:03:48.650Z,94960.00
2024-02-09T01:06:15.753Z,94943.31
2024-02-09T01:08:47.068Z,94925.63
2024-02-09T01:11:14.361Z,94942.09
2024-02-09T01:13:59.659Z,94942.72
2024-02-09T01:16:44.979Z,94922.44
2024-02-09T01:19:29.900Z,94920.94
2024-02-09T01:22:17.709Z,94912.38
2024-02-09T01:25:02.761Z,94916.09
2024-02-09T01:27:50.223Z,94917.16
2024-02-09T01:30:35.069Z,94938.34
2024-02-09T01:33:19.987Z,94927.25
2024-02-09T01:36:07.454Z,94920.34
2024-02-09T01:38:52.376Z,94920.63
2024-02-09T01:41:39.695Z,94930.84
2024-02-09T01:44:27.239Z,94941.97
2024-02-09T01:47:15.588Z,94946.47
2024-02-09T01:50:05.885Z,94955.31
2024-02-09T01:52:52.014Z,94947.03
2024-02-09T01:55:37.270Z,94952.75
2024-02-09T01:58:22.706Z,94956.22
2024-02-09T02:01:09.283Z,94964.31
2024-02-09T02:03:55.046Z,94969.72
2024-02-09T02:06:42.897Z,94964.31
2024-02-09T02:09:27.773Z,94969.41
2024-02-09T02:12:12.847Z,94950.97
2024-02-09T02:14:58.280Z,94955.31
2024-02-09T02:17:43.200Z,94950.22
2024-02-09T02:20:30.857Z,94946.78
2024-02-09T02:23:45.095Z,94949.47
2024-02-09T02:26:30.528Z,94946.78
2024-02-09T02:29:15.731Z,94944.50
2024-02-09T02:32:03.315Z,94944.50
2024-02-09T02:34:48.212Z,94937.16
2024-02-09T02:37:33.575Z,94939.88
2024-02-09T02:40:18.724Z,94945.84
2024-02-09T02:42:47.312Z,94934.75
2024-02-09T02:45:16.394Z,94945.38
2024-02-09T02:48:02.995Z,94938.66
2024-02-09T02:50:48.416Z,94939.09
2024-02-09T02:53:35.994Z,94941.34
2024-02-09T02:56:20.928Z,94936.38
2024-02-09T02:59:05.871Z,94924.81
2024-02-09T03:01:50.776Z,94934.72
2024-02-09T03:04:22.842Z,94928.41
2024-02-09T03:07:13.581Z,94926.03
2024-02-09T03:09:43.340Z,94919.09
2024-02-09T03:12:13.412Z,94916.25
2024-02-09T03:14:41.175Z,94914.00
2024-02-09T03:17:10.433Z,94924.66
2024-02-09T03:19:37.450Z,94912.34
2024-02-09T03:22:04.253Z,94914.75
2024-02-09T03:24:33.055Z,94915.97
2024-02-09T03:26:59.860Z,94917.75
2024-02-09T03:29:26.487Z,94909.34
2024-02-09T03:31:53.032Z,94910.41
2024-02-09T03:34:19.908Z,94902.28
2024-02-09T03:36:46.661Z,94907.25
2024-02-09T03:39:13.254Z,94892.66
2024-02-09T03:41:44.591Z,94882.16
2024-02-09T03:44:13.387Z,94903.03
2024-02-09T03:46:40.059Z,94900.59
2024-02-09T03:49:12.443Z,94901.66
2024-02-09T03:51:41.362Z,94907.50
2024-02-09T03:54:08.172Z,94902.28
2024-02-09T03:56:37.408Z,94897.91
2024-02-09T03:59:07.717Z,94898.38
2024-02-09T04:01:35.054Z,94895.94
2024-02-09T04:04:01.944Z,94888.59
2024-02-09T04:06:30.852Z,94893.53
2024-02-09T04:09:00.606Z,94894.28
2024-02-09T04:11:29.913Z,94882.75
2024-02-09T04:13:56.713Z,94901.84
2024-02-09T04:16:25.516Z,94899.69
2024-02-09T04:18:54.363Z,94893.53
2024-02-09T04:21:20.936Z,94886.47
2024-02-09T04:23:48.368Z,94891.88
2024-02-09T04:26:14.986Z,94883.78
2024-02-09T04:28:46.667Z,94879.88
2024-02-09T04:31:13.414Z,94883.31
2024-02-09T04:33:43.887Z,94890.69
2024-02-09T04:36:11.981Z,94884.38
2024-02-09T04:38:42.212Z,94874.28
2024-02-09T04:41:08.937Z,94874.91
2024-02-09T04:43:35.509Z,94880.91
2024-02-09T04:46:04.497Z,94879.13
2024-02-09T04:48:36.067Z,94871.75
2024-02-09T04:51:08.764Z,94873.75
2024-02-09T04:53:37.758Z,94868.94
2024-02-09T04:56:06.784Z,94862.00
2024-02-09T04:58:33.400Z,94854.13
2024-02-09T05:01:01.356Z,94858.16
2024-02-09T05:03:30.288Z,94855.44
2024-02-09T05:05:56.840Z,94845.41
2024-02-09T05:08:24.964Z,94842.38
2024-02-09T05:10:53.953Z,94853.78
2024-02-09T05:13:20.725Z,94832.16
2024-02-09T05:15:52.116Z,94835.59
2024-02-09T05:18:23.281Z,94844.88
2024-02-09T05:20:52.082Z,94839.47
2024-02-09T05:23:19.006Z,94845.66
2024-02-09T05:25:45.736Z,94847.47
2024-02-09T05:28:12.415Z,94841.00
2024-02-09T05:30:41.239Z,94844.56
2024-02-09T05:33:12.142Z,94845.06
2024-02-09T05:35:44.072Z,94840.22
2024-02-09T05:38:14.379Z,94840.22
2024-02-09T05:40:41.008Z,94830.59
2024-02-09T05:43:07.619Z,94832.41
2024-02-09T05:45:35.808Z,94831.50
2024-02-09T05:48:02.401Z,94829.25
2024-02-09T05:50:36.787Z,94830.44
2024-02-09T05:53:08.781Z,94833.59
2024-02-09T05:55:40.572Z,94826.53
2024-02-09T05:58:07.315Z,94818.13
2024-02-09T06:00:36.227Z,94813.03
2024-02-09T06:03:03.829Z,94809.56
2024-02-09T06:05:41.516Z,94808.97
2024-02-09T06:08:11.390Z,94823.53
2024-02-09T06:10:38.165Z,94813.94
2024-02-09T06:13:05.138Z,94799.94
2024-02-09T06:15:38.130Z,94804.16
2024-02-09T06:18:07.121Z,94817.38
2024-02-09T06:20:34.932Z,94810.31
2024-02-09T06:23:03.029Z,94801.16
2024-02-09T06:25:29.613Z,94809.28
2024-02-09T06:27:59.612Z,94815.44
2024-02-09T06:30:26.342Z,94817.84
2024-02-09T06:32:56.486Z,94815.13
2024-02-09T06:35:23.198Z,94810.47
2024-02-09T06:37:54.097Z,94802.81
2024-02-09T06:40:23.224Z,94816.78
2024-02-09T06:42:49.993Z,94800.56
2024-02-09T06:45:18.164Z,94808.22
2024-02-09T06:47:47.055Z,94808.69
2024-02-09T06:50:20.981Z,94816.34
2024-02-09T06:52:49.537Z,94804.31
2024-02-09T06:55:20.560Z,94798.91
2024-02-09T06:57:49.944Z,94796.50
2024-02-09T07:00:17.094Z,94798.91
2024-02-09T07:02:48.924Z,94788.38
2024-02-09T07:05:17.252Z,94790.34
2024-02-09T07:07:46.578Z,94783.44
2024-02-09T07:10:14.671Z,94799.50
2024-02-09T07:12:44.057Z,94799.19
2024-02-09T07:15:16.096Z,94806.91
2024-02-09T07:17:45.113Z,94794.97
2024-02-09T07:20:18.008Z,94803.53
2024-02-09T07:22:47.579Z,94800.94
2024-02-09T07:25:16.645Z,94806.94
2024-02-09T07:27:43.335Z,94804.06
2024-02-09T07:30:11.203Z,94808.56
2024-02-09T07:32:40.137Z,94808.56
2024-02-09T07:35:07.319Z,94807.34
2024-02-09T07:37:36.446Z,94808.09
2024-02-09T07:40:04.392Z,94805.06
2024-02-09T07:42:31.143Z,94810.47
2024-02-09T07:45:00.588Z,94812.72
2024-02-09T07:47:28.609Z,94821.94
2024-02-09T07:49:57.759Z,94829.09
2024-02-09T07:52:29.673Z,94827.53
2024-02-09T07:54:56.469Z,94834.75
2024-02-09T07:57:23.034Z,94826.34
2024-02-09T07:59:52.574Z,94823.75
2024-02-09T08:02:20.108Z,94835.91
2024-02-09T08:04:46.923Z,94831.53
2024-02-09T08:07:15.435Z,94831.06
2024-02-09T08:09:46.927Z,94835.69
2024-02-09T08:12:15.748Z,94835.22
2024-02-09T08:14:43.754Z,94830.16
2024-02-09T08:17:12.734Z,94837.66
2024-02-09T08:19:39.380Z,94833.25
2024-02-09T08:22:08.489Z,94825.44
2024-02-09T08:24:40.053Z,94834.72
2024-02-09T08:27:09.754Z,94824.78
2024-02-09T08:29:42.473Z,94822.13
2024-02-09T08:32:09.408Z,94819.38
2024-02-09T08:34:40.833Z,94817.41
2024-02-09T08:37:12.019Z,94814.69
2024-02-09T08:39:47.780Z,94808.84
2024-02-09T08:42:14.961Z,94825.00
2024-02-09T08:44:42.121Z,94825.31
2024-02-09T08:47:11.444Z,94823.06
2024-02-09T08:49:40.880Z,94812.97
2024-02-09T08:52:07.538Z,94814.00
2024-02-09T08:54:34.616Z,94812.34
2024-02-09T08:57:01.149Z,94818.94
2024-02-09T08:59:27.759Z,94813.53
2024-02-09T09:01:55.149Z,94811.03
2024-02-09T09:04:22.596Z,94807.28
2024-02-09T09:06:51.649Z,94806.63
2024-02-09T09:09:22.221Z,94806.91
2024-02-09T09:11:51.068Z,94800.94
2024-02-09T09:14:17.646Z,94800.31
2024-02-09T09:16:45.581Z,94797.69
2024-02-09T09:19:16.270Z,94784.47
2024-02-09T09:21:45.909Z,94783.53
2024-02-09T09:24:16.646Z,94780.00
2024-02-09T09:26:50.550Z,94761.50
2024-02-09T09:29:17.107Z,94780.22
2024-02-09T09:31:43.762Z,94770.84
2024-02-09T09:34:10.390Z,94763.03
2024-02-09T09:36:36.942Z,94757.72
2024-02-09T09:39:03.734Z,94745.19
2024-02-09T09:41:34.642Z,94741.69
2024-02-09T09:44:01.246Z,94737.13
2024-02-09T09:46:31.794Z,94729.56
2024-02-09T09:48:58.983Z,94729.19
2024-02-09T09:51:32.030Z,94729.56
2024-02-09T09:53:58.904Z,94735.63
2024-02-09T09:56:26.915Z,94730.84
2024-02-09T09:58:54.013Z,94726.28
2024-02-09T10:01:23.083Z,94734.75
2024-02-09T10:03:51.093Z,94729.91
2024-02-09T10:06:24.075Z,94725.59
2024-02-09T10:08:59.130Z,94728.78
2024-02-09T10:11:25.783Z,94726.56
2024-02-09T10:13:55.320Z,94712.28
2024-02-09T10:16:24.510Z,94711.06
2024-02-09T10:18:55.771Z,94709.91
2024-02-09T10:21:24.792Z,94707.38
2024-02-09T10:23:54.108Z,94711.06
2024-02-09T10:26:22.144Z,94717.19
2024-02-09T10:28:53.034Z,94723.84
2024-02-09T10:31:23.762Z,94716.47
2024-02-09T10:33:50.692Z,94718.44
2024-02-09T10:36:17.919Z,94710.84
2024-02-09T10:38:47.747Z,94709.91
2024-02-09T10:41:18.236Z,94710.38
2024-02-09T10:43:52.255Z,94712.81
2024-02-09T10:46:19.824Z,94706.75
2024-02-09T10:48:54.696Z,94708.31
2024-02-09T10:51:28.681Z,94701.94
2024-02-09T10:54:12.806Z,94706.44
2024-02-09T10:56:40.942Z,94701.47
2024-02-09T10:59:09.123Z,94703.69
2024-02-09T11:01:39.173Z,94704.31
2024-02-09T11:04:06.324Z,94701.47
2024-02-09T11:09:01.984Z,94699.19
2024-02-09T11:11:33.495Z,94690.25
2024-02-09T11:14:11.334Z,94680.34
2024-02-09T11:16:47.056Z,94689.91
2024-02-09T11:19:19.088Z,94680.81
2024-02-09T11:21:58.849Z,94680.94
2024-02-09T11:24:29.010Z,94679.53
2024-02-09T11:26:57.218Z,94669.63
2024-02-09T11:29:23.986Z,94680.47
2024-02-09T11:31:58.427Z,94675.88
2024-02-09T11:34:27.074Z,94671.53
2024-02-09T11:36:54.766Z,94664.41
2024-02-09T11:39:23.622Z,94661.09
2024-02-09T11:41:50.856Z,94650.72
2024-02-09T11:44:21.260Z,94641.06
2024-02-09T11:46:53.262Z,94627.59
2024-02-09T11:49:25.201Z,94637.56
2024-02-09T11:51:54.680Z,94634.38
2024-02-09T11:54:22.761Z,94631.94
2024-02-09T11:56:57.358Z,94636.81
2024-02-09T11:59:24.013Z,94625.22
2024-02-09T12:01:54.851Z,94629.91
2024-02-09T12:04:25.792Z,94625.28
2024-02-09T12:06:55.598Z,94610.81
2024-02-09T12:09:24.464Z,94619.56
2024-02-09T12:11:51.372Z,94614.97
2024-02-09T12:14:18.159Z,94617.72
2024-02-09T12:16:45.189Z,94608.16
2024-02-09T12:19:12.218Z,94616.56
2024-02-09T12:21:47.482Z,94623.00
2024-02-09T12:24:14.105Z,94626.50
2024-02-09T12:26:43.635Z,94626.50
2024-02-09T12:29:16.647Z,94632.59
2024-02-09T12:31:48.894Z,94620.91
2024-02-09T12:34:18.637Z,94624.22
2024-02-09T12:36:58.584Z,94613.75
2024-02-09T12:39:26.538Z,94621.16
2024-02-09T12:42:02.463Z,94607.75
2024-02-09T12:44:31.221Z,94607.84
2024-02-09T12:47:04.264Z,94603.16
2024-02-09T12:49:38.604Z,94593.53
2024-02-09T12:52:09.787Z,94578.31
2024-02-09T12:54:41.482Z,94571.63
2024-02-09T12:57:10.613Z,94568.94
2024-02-09T12:59:41.319Z,94570.50
2024-02-09T13:02:11.549Z,94570.31
2024-02-09T13:04:38.978Z,94563.59
2024-02-09T13:07:07.537Z,94557.50
2024-02-09T13:09:35.004Z,94563.47
2024-02-09T13:12:02.400Z,94565.03
2024-02-09T13:14:31.826Z,94563.34
2024-02-09T13:17:01.087Z,94571.28
2024-02-09T13:19:30.369Z,94567.81
2024-02-09T13:22:02.932Z,94557.44
2024-02-09T13:24:29.628Z,94551.69
2024-02-09T13:26:58.665Z,94545.28
2024-02-09T13:29:27.617Z,94551.41
2024-02-09T13:31:59.734Z,94547.31
2024-02-09T13:34:31.497Z,94542.38
2024-02-09T13:36:58.245Z,94554.09
2024-02-09T13:39:27.896Z,94560.25
2024-02-09T13:41:54.854Z,94568.31
2024-02-09T13:44:21.445Z,94576.19
2024-02-09T13:46:48.037Z,94570.66
2024-02-09T13:49:14.672Z,94554.25
2024-02-09T13:51:43.807Z,94569.75
2024-02-09T13:54:14.960Z,94561.34
2024-02-09T13:56:41.519Z,94546.72
2024-02-09T13:59:08.078Z,94556.31
2024-02-09T14:01:37.611Z,94549.28
2024-02-09T14:04:06.933Z,94554.56
2024-02-09T14:06:34.626Z,94553.81
2024-02-09T14:09:01.359Z,94536.69
2024-02-09T14:11:30.472Z,94527.63
2024-02-09T14:13:59.223Z,94525.94
2024-02-09T14:16:26.953Z,94523.06
2024-02-09T14:18:53.619Z,94524.84
2024-02-09T14:21:20.183Z,94519.00
2024-02-09T14:23:46.716Z,94527.13
2024-02-09T14:26:17.244Z,94522.72
2024-02-09T14:28:43.931Z,94504.38
2024-02-09T14:33:40.091Z,94508.66
2024-02-09T14:36:09.773Z,94502.66
2024-02-09T14:38:38.729Z,94477.53
2024-02-09T14:41:11.703Z,94478.03
2024-02-09T14:43:39.222Z,94472.91
2024-02-09T14:46:10.858Z,94481.75
2024-02-09T14:48:43.257Z,94484.53
2024-02-09T14:51:12.340Z,94479.38
2024-02-09T14:53:39.705Z,94480.94
2024-02-09T14:56:08.506Z,94481.69
2024-02-09T14:58:35.773Z,94474.31
2024-02-09T15:01:04.878Z,94481.09
2024-02-09T15:03:39.104Z,94480.25
2024-02-09T15:06:15.431Z,94476.28
2024-02-09T15:08:50.364Z,94485.69
2024-02-09T15:11:24.609Z,94472.06
2024-02-09T15:13:59.714Z,94483.72
2024-02-09T15:16:26.606Z,94465.59
2024-02-09T15:18:53.684Z,94471.81
2024-02-09T15:21:20.353Z,94479.72
2024-02-09T15:23:48.705Z,94483.72
2024-02-09T15:26:18.165Z,94485.47
2024-02-09T15:28:45.532Z,94480.06
2024-02-09T15:31:12.359Z,94476.59
2024-02-09T15:33:39.698Z,94476.59
2024-02-09T15:36:07.162Z,94479.13
2024-02-09T15:38:36.739Z,94467.75
2024-02-09T15:41:06.216Z,94469.22
2024-02-09T15:43:35.159Z,94464.84
2024-02-09T15:46:06.608Z,94450.69
2024-02-09T15:48:35.007Z,94450.41
2024-02-09T15:51:04.332Z,94440.59
2024-02-09T15:53:30.897Z,94444.44
2024-02-09T15:56:02.151Z,94438.50
2024-02-09T15:58:32.942Z,94433.75
2024-02-09T16:00:59.964Z,94418.38
2024-02-09T16:03:26.637Z,94421.38
2024-02-09T16:05:57.088Z,94403.34
2024-02-09T16:08:23.815Z,94395.72
2024-02-09T16:10:51.465Z,94400.66
2024-02-09T16:13:18.070Z,94408.44
2024-02-09T16:15:49.278Z,94420.66
2024-02-09T16:18:18.085Z,94420.19
2024-02-09T16:20:44.657Z,94416.59
2024-02-09T16:23:14.680Z,94411.25
2024-02-09T16:25:50.065Z,94406.75
2024-02-09T16:28:25.844Z,94405.31
2024-02-09T16:30:54.962Z,94391.78
2024-02-09T16:33:23.856Z,94387.84
2024-02-09T16:35:52.707Z,94392.91
2024-02-09T16:38:20.372Z,94398.22
2024-02-09T16:40:49.634Z,94412.44
2024-02-09T16:43:16.574Z,94414.66
2024-02-09T16:45:44.040Z,94419.41
2024-02-09T16:48:10.851Z,94424.16
2024-02-09T16:50:41.013Z,94420.50
2024-02-09T16:53:10.831Z,94413.13
2024-02-09T16:55:40.520Z,94417.59
2024-02-09T16:58:07.631Z,94422.56
2024-02-09T17:00:37.575Z,94415.38
2024-02-09T17:03:06.895Z,94402.88
2024-02-09T17:05:35.937Z,94420.59
2024-02-09T17:08:04.816Z,94421.75
2024-02-09T17:10:31.584Z,94422.03
2024-02-09T17:12:59.103Z,94404.38
2024-02-09T17:15:25.680Z,94401.41
2024-02-09T17:17:57.029Z,94387.06
2024-02-09T17:20:25.889Z,94383.91
2024-02-09T17:22:57.511Z,94391.25
2024-02-09T17:25:24.610Z,94383.16
2024-02-09T17:27:53.736Z,94381.94
2024-02-09T17:30:20.346Z,94380.84
2024-02-09T17:32:49.978Z,94373.78
2024-02-09T17:35:16.627Z,94383.63
2024-02-09T17:37:43.973Z,94389.53
2024-02-09T17:40:10.853Z,94392.78
2024-02-09T17:42:37.458Z,94393.34
2024-02-09T17:45:05.180Z,94393.63
2024-02-09T17:47:31.868Z,94389.69
2024-02-09T17:49:58.470Z,94390.97
2024-02-09T17:52:27.440Z,94384.25
2024-02-09T17:54:56.430Z,94392.19
2024-02-09T17:57:25.559Z,94394.16
2024-02-09T17:59:54.669Z,94394.63
2024-02-09T18:02:23.443Z,94394.00
2024-02-09T18:04:50.184Z,94402.31
2024-02-09T18:07:19.737Z,94396.84
2024-02-09T18:09:46.418Z,94403.34
2024-02-09T18:12:13.013Z,94392.63
2024-02-09T18:14:39.630Z,94405.66
2024-02-09T18:17:08.636Z,94393.47
2024-02-09T18:19:35.443Z,94401.09
2024-02-09T18:22:06.683Z,94393.28
2024-02-09T18:24:38.684Z,94398.13
2024-02-09T18:27:08.648Z,94392.25
2024-02-09T18:29:35.250Z,94393.00
2024-02-09T18:32:05.149Z,94394.22
2024-02-09T18:34:34.469Z,94382.19
2024-02-09T18:37:03.546Z,94378.75
2024-02-09T18:39:30.117Z,94369.25
2024-02-09T18:42:01.614Z,94374.53
2024-02-09T18:44:30.658Z,94367.81
2024-02-09T18:46:57.988Z,94366.34
2024-02-09T18:49:29.236Z,94365.13
2024-02-09T18:51:59.702Z,94370.81
2024-02-09T18:54:26.463Z,94375.28
2024-02-09T18:56:53.517Z,94380.81
2024-02-09T18:59:22.523Z,94380.22
2024-02-09T19:01:52.094Z,94383.47
2024-02-09T19:04:19.188Z,94381.91
2024-02-09T19:06:46.910Z,94379.50
2024-02-09T19:09:14.377Z,94385.19
2024-02-09T19:11:43.795Z,94380.06
2024-02-09T19:14:10.775Z,94374.94
2024-02-09T19:16:39.882Z,94371.03
2024-02-09T19:19:12.398Z,94370.06
2024-02-09T19:21:39.782Z,94372.75
2024-02-09T19:24:08.624Z,94371.75
2024-02-09T19:26:35.392Z,94369.31
2024-02-09T19:29:04.480Z,94333.00
2024-02-09T19:31:31.591Z,94357.88
2024-02-09T19:33:58.480Z,94350.22
2024-02-09T19:36:25.256Z,94340.69
2024-02-09T19:38:51.841Z,94343.69
2024-02-09T19:41:24.506Z,94342.94
2024-02-09T19:43:53.740Z,94344.44
2024-02-09T19:46:24.918Z,94344.38
2024-02-09T19:48:53.096Z,94360.38
2024-02-09T19:51:21.958Z,94357.59
2024-02-09T19:53:50.924Z,94344.66
2024-02-09T19:56:19.839Z,94351.44
2024-02-09T19:58:46.645Z,94353.00
2024-02-09T20:01:14.029Z,94366.06
2024-02-09T20:03:43.677Z,94359.81
2024-02-09T20:06:10.339Z,94356.84
2024-02-09T20:08:39.980Z,94357.41
2024-02-09T20:11:11.269Z,94348.81
2024-02-09T20:13:37.806Z,94356.72
2024-02-09T20:16:07.148Z,94352.34
2024-02-09T20:18:33.726Z,94355.06
2024-02-09T20:21:00.362Z,94356.28
2024-02-09T20:23:28.030Z,94341.38
2024-02-09T20:25:55.407Z,94344.25
2024-02-09T20:28:24.629Z,94327.22
2024-02-09T20:30:51.233Z,94339.72
2024-02-09T20:33:19.589Z,94336.53
2024-02-09T20:35:52.368Z,94337.94
2024-02-09T20:38:22.130Z,94336.91
2024-02-09T20:40:49.859Z,94335.50
2024-02-09T20:43:19.454Z,94329.63
2024-02-09T20:45:47.941Z,94341.84
2024-02-09T20:48:15.582Z,94338.50
2024-02-09T20:50:44.708Z,94334.56
2024-02-09T20:53:13.078Z,94342.75
2024-02-09T20:55:43.047Z,94334.19
2024-02-09T20:58:11.909Z,94340.69
2024-02-09T21:00:41.809Z,94339.13
2024-02-09T21:03:09.663Z,94344.16
2024-02-09T21:05:37.364Z,94340.25
2024-02-09T21:08:05.806Z,94345.94
2024-02-09T21:10:36.383Z,94344.25
2024-02-09T21:13:08.129Z,94346.03
2024-02-09T21:15:36.088Z,94355.16
2024-02-09T21:18:02.941Z,94350.19
2024-02-09T21:20:30.985Z,94344.63
2024-02-09T21:23:00.265Z,94345.94
2024-02-09T21:25:26.982Z,94339.50
2024-02-09T21:27:53.785Z,94365.63
2024-02-09T21:30:25.539Z,94370.06
2024-02-09T21:32:57.865Z,94369.13
2024-02-09T21:35:31.067Z,94370.91
2024-02-09T21:38:02.952Z,94377.53
2024-02-09T21:40:33.185Z,94369.41
2024-02-09T21:43:06.239Z,94369.94
2024-02-09T21:45:36.549Z,94374.63
2024-02-09T21:48:07.646Z,94376.09
2024-02-09T21:50:37.242Z,94381.50
2024-02-09T21:53:04.723Z,94368.22
2024-02-09T21:55:31.962Z,94375.84
2024-02-09T21:58:02.440Z,94380.03
2024-02-09T22:00:34.934Z,94373.16
2024-02-09T22:03:04.927Z,94369.31
2024-02-09T22:05:31.963Z,94388.81
2024-02-09T22:07:58.633Z,94380.13
2024-02-09T22:10:27.627Z,94377.63
2024-02-09T22:12:57.188Z,94376.13
2024-02-09T22:15:29.197Z,94383.50
2024-02-09T22:17:55.883Z,94386.22
2024-02-09T22:20:24.747Z,94395.69
2024-02-09T22:22:54.651Z,94399.03
2024-02-09T22:25:21.607Z,94401.09
2024-02-09T22:27:54.019Z,94393.44
2024-02-09T22:30:21.081Z,94405.59
2024-02-09T22:32:47.853Z,94410.25
2024-02-09T22:35:19.413Z,94411.63
2024-02-09T22:37:46.136Z,94416.41
2024-02-09T22:40:16.037Z,94414.16
2024-02-09T22:42:43.108Z,94417.16
2024-02-09T22:45:13.226Z,94429.44
2024-02-09T22:47:40.764Z,94414.91
2024-02-09T22:50:13.748Z,94417.88
2024-02-09T22:52:41.715Z,94416.84
2024-02-09T22:55:08.515Z,94416.19
2024-02-09T22:57:35.431Z,94402.22
2024-02-09T23:00:17.442Z,94408.91
2024-02-09T23:02:48.327Z,94406.94
2024-02-09T23:05:17.732Z,94406.03
2024-02-09T23:07:45.482Z,94402.13
2024-02-09T23:10:13.142Z,94409.19
2024-02-09T23:12:41.914Z,94408.44
2024-02-09T23:15:17.735Z,94418.97
2024-02-09T23:17:47.258Z,94408.81
2024-02-09T23:20:14.786Z,94423.91
2024-02-09T23:22:41.536Z,94420.56
2024-02-09T23:25:08.663Z,94414.97
2024-02-09T23:27:37.764Z,94422.44
2024-02-09T23:30:11.560Z,94427.66
2024-02-09T23:32:39.838Z,94421.75
2024-02-09T23:35:09.410Z,94423.06
2024-02-09T23:37:36.652Z,94416.00
2024-02-09T23:40:03.392Z,94405.19
2024-02-09T23:42:32.783Z,94424.66
2024-02-09T23:45:03.053Z,94419.56
2024-02-09T23:47:29.793Z,94413.19
2024-02-09T23:49:59.226Z,94413.03
2024-02-09T23:52:30.364Z,94407.63
2024-02-09T23:54:56.978Z,94410.69
2024-02-09T23:57:23.575Z,94393.53
2024-02-09T23:59:54.975Z,94388.34
